Time;durP1;ratioP1;P1;durP2;ratioP2;P2;SDS_P1;SDS_P2;PMS_P1;PMS_P2;Temp;Humidity;BMP_temperature;BMP_pressure;BME280_temperature;BME280_humidity;BME280_pressure;Samples;Min_cycle;Max_cycle;Signal;HPM_P1;HPM_P2
2022/12/09 00:02:13;;;;;;;41.07;25.73;;;;;;;-142.25;100.00;58004.16;5032416;28;20048;-62
2022/12/09 00:04:38;;;;;;;44.83;25.90;;;;;;;-142.25;100.00;58004.16;5032109;28;20042;-60
2022/12/09 00:07:04;;;;;;;40.53;25.87;;;;;;;-142.25;100.00;58004.16;5032587;28;20123;-59
2022/12/09 00:09:30;;;;;;;41.70;24.73;;;;;;;-142.25;100.00;58004.16;5031739;28;20054;-62
2022/12/09 00:11:55;;;;;;;37.80;23.40;;;;;;;-142.25;100.00;58004.16;5025466;28;20060;-62
2022/12/09 00:14:21;;;;;;;42.67;25.07;;;;;;;-142.25;100.00;58004.16;5032179;28;20049;-61
2022/12/09 00:16:47;;;;;;;40.97;24.37;;;;;;;-142.25;100.00;58004.16;5031480;28;20036;-60
2022/12/09 00:19:13;;;;;;;42.40;24.63;;;;;;;-142.25;100.00;58004.16;5031995;28;20064;-61
2022/12/09 00:21:38;;;;;;;38.63;23.53;;;;;;;-142.25;100.00;58004.16;5027563;28;20045;-60
2022/12/09 00:24:06;;;;;;;36.27;22.20;;;;;;;-142.25;100.00;58004.16;5031956;28;20041;-61
2022/12/09 00:26:33;;;;;;;38.87;21.70;;;;;;;-142.25;100.00;58004.16;5033155;28;20522;-61
2022/12/09 00:28:59;;;;;;;37.87;20.73;;;;;;;-142.25;100.00;58004.16;5031668;28;20053;-61
2022/12/09 00:31:28;;;;;;;36.50;22.10;;;;;;;-142.25;100.00;58004.16;5027168;28;20649;-61
2022/12/09 00:33:56;;;;;;;36.13;22.03;;;;;;;-142.25;100.00;58004.16;5033115;28;20048;-59
2022/12/09 00:36:23;;;;;;;33.53;20.47;;;;;;;-142.25;100.00;58004.16;5053760;28;20041;-61
2022/12/09 00:38:50;;;;;;;32.67;20.37;;;;;;;-142.25;100.00;58004.16;5039426;28;20476;-61
2022/12/09 00:41:16;;;;;;;30.43;18.97;;;;;;;-142.25;100.00;58004.16;5038276;28;20084;-59
2022/12/09 00:43:44;;;;;;;35.37;21.00;;;;;;;-142.25;100.00;58004.16;5048509;28;20038;-59
2022/12/09 00:46:11;;;;;;;31.87;19.93;;;;;;;-142.25;100.00;58004.16;5037232;28;20045;-61
2022/12/09 00:48:37;;;;;;;30.23;19.10;;;;;;;-142.25;100.00;58004.16;5036382;28;20160;-60
2022/12/09 00:51:08;;;;;;;29.30;18.33;;;;;;;-142.25;100.00;58004.16;5045150;28;20049;-60
2022/12/09 00:53:33;;;;;;;29.43;18.03;;;;;;;-142.25;100.00;58004.16;5038956;28;20037;-59
2022/12/09 00:55:59;;;;;;;33.77;19.53;;;;;;;-142.25;100.00;58004.16;5038827;28;20207;-61
2022/12/09 00:58:25;;;;;;;26.60;16.97;;;;;;;-142.25;100.00;58004.16;5040743;28;20451;-59
2022/12/09 01:00:55;;;;;;;28.80;17.47;;;;;;;-142.25;100.00;58004.16;5038618;28;20053;-62
2022/12/09 01:03:21;;;;;;;29.87;17.57;;;;;;;-142.25;100.00;58004.16;5039580;28;20136;-62
2022/12/09 01:05:46;;;;;;;28.30;17.63;;;;;;;-142.25;100.00;58004.16;5034276;28;20175;-59
2022/12/09 01:08:12;;;;;;;28.00;17.90;;;;;;;-142.25;100.00;58004.16;5028762;28;20532;-60
2022/12/09 01:10:41;;;;;;;30.13;17.63;;;;;;;-142.25;100.00;58004.16;5051889;28;20049;-61
2022/12/09 01:13:06;;;;;;;28.90;17.33;;;;;;;-142.25;100.00;58004.16;5036539;28;20531;-61
2022/12/09 01:15:33;;;;;;;26.63;17.47;;;;;;;-142.25;100.00;58004.16;5036553;28;20041;-61
2022/12/09 01:17:58;;;;;;;30.53;18.90;;;;;;;-142.25;100.00;58004.16;5036335;28;20051;-61
2022/12/09 01:20:24;;;;;;;26.23;16.43;;;;;;;-142.25;100.00;58004.16;5036624;28;20131;-60
2022/12/09 01:22:50;;;;;;;23.73;16.60;;;;;;;-142.25;100.00;58004.16;5034960;28;20580;-60
2022/12/09 01:25:16;;;;;;;24.40;16.40;;;;;;;-142.25;100.00;58004.16;5034441;28;20045;-61
2022/12/09 01:27:42;;;;;;;23.83;15.83;;;;;;;-142.25;100.00;58004.16;5037224;28;20044;-61
2022/12/09 01:30:11;;;;;;;25.97;16.07;;;;;;;-142.25;100.00;58004.16;5033768;28;20117;-61
2022/12/09 01:32:37;;;;;;;27.03;17.40;;;;;;;-142.25;100.00;58004.16;5026570;28;20053;-61
2022/12/09 01:35:03;;;;;;;26.33;16.30;;;;;;;-142.25;100.00;58004.16;5034427;28;20043;-60
2022/12/09 01:37:31;;;;;;;22.30;15.13;;;;;;;-142.25;100.00;58004.16;5034999;28;20348;-61
2022/12/09 01:39:57;;;;;;;26.50;16.90;;;;;;;-142.25;100.00;58004.16;5037744;28;20045;-61
2022/12/09 01:42:25;;;;;;;24.57;16.30;;;;;;;-142.25;100.00;58004.16;5043396;28;20033;-62
2022/12/09 01:45:19;;;;;;;28.13;17.27;;;;;;;-142.25;100.00;58004.16;5036959;28;20041;-61
2022/12/09 01:47:51;;;;;;;24.47;14.57;;;;;;;-142.25;100.00;58004.16;5034344;28;20057;-61
2022/12/09 01:50:17;;;;;;;22.20;14.40;;;;;;;-142.25;100.00;58004.16;5036078;28;20049;-62
2022/12/09 01:52:44;;;;;;;23.00;14.20;;;;;;;-142.25;100.00;58004.16;5034446;28;20117;-61
2022/12/09 01:55:10;;;;;;;25.77;15.70;;;;;;;-142.25;100.00;58004.16;5035412;28;20034;-61
2022/12/09 01:57:36;;;;;;;20.97;15.07;;;;;;;-142.25;100.00;58004.16;5034766;28;20135;-64
2022/12/09 02:00:03;;;;;;;25.43;16.97;;;;;;;-142.25;100.00;58004.16;5034476;28;20056;-62
2022/12/09 02:02:31;;;;;;;25.10;15.33;;;;;;;-142.25;100.00;58004.16;5026107;28;20041;-60
2022/12/09 02:04:57;;;;;;;21.63;13.73;;;;;;;-142.25;100.00;58004.16;5034382;28;20041;-60
2022/12/09 02:07:26;;;;;;;19.97;14.93;;;;;;;-142.25;100.00;58004.16;5042234;28;20424;-62
2022/12/09 02:09:51;;;;;;;24.77;14.87;;;;;;;-142.25;100.00;58004.16;5036638;28;20079;-60
2022/12/09 02:12:52;;;;;;;21.20;13.80;;;;;;;-142.25;100.00;58004.16;5042316;28;20045;-61
2022/12/09 02:15:46;;;;;;;22.83;15.27;;;;;;;-142.25;100.00;58004.16;5033664;28;20380;-63
2022/12/09 02:18:42;;;;;;;23.67;15.30;;;;;;;-142.25;100.00;58004.16;5032883;28;20591;-60
2022/12/09 02:21:14;;;;;;;21.60;14.13;;;;;;;-142.25;100.00;58004.16;5009483;28;20715;-60
2022/12/09 02:23:49;;;;;;;22.40;13.97;;;;;;;-142.25;100.00;58004.16;5033753;28;20468;-61
2022/12/09 02:26:31;;;;;;;21.45;14.52;;;;;;;-142.25;100.00;58004.16;5035960;28;20102;-61
2022/12/09 02:29:15;;;;;;;21.80;14.33;;;;;;;-142.25;100.00;58004.16;5033971;28;20041;-60
2022/12/09 02:32:35;;;;;;;24.03;14.97;;;;;;;-142.25;100.00;58004.16;5037081;28;20693;-61
2022/12/09 02:35:22;;;;;;;24.90;17.07;;;;;;;-142.25;100.00;58004.16;5042471;28;20140;-61
2022/12/09 02:37:57;;;;;;;21.73;14.13;;;;;;;-142.25;100.00;58004.16;5039653;28;20064;-60
2022/12/09 02:40:41;;;;;;;24.00;14.23;;;;;;;-142.25;100.00;58004.16;5042065;28;20328;-60
2022/12/09 02:43:08;;;;;;;21.23;14.47;;;;;;;-142.25;100.00;58004.16;5042114;28;20187;-61
2022/12/09 02:45:36;;;;;;;25.27;14.13;;;;;;;-142.25;100.00;58004.16;5033025;28;20124;-61
2022/12/09 02:48:03;;;;;;;20.80;15.03;;;;;;;-142.25;100.00;58004.16;5033146;28;20053;-61
2022/12/09 02:50:33;;;;;;;19.40;13.17;;;;;;;-142.25;100.00;58004.16;5033598;28;20049;-60
2022/12/09 02:53:05;;;;;;;17.87;12.57;;;;;;;-142.25;100.00;58004.16;5043892;28;20076;-60
2022/12/09 02:55:33;;;;;;;22.50;13.30;;;;;;;-142.25;100.00;58004.16;5037959;28;20049;-62
2022/12/09 02:58:00;;;;;;;18.43;13.57;;;;;;;-142.25;100.00;58004.16;5036019;28;20049;-60
2022/12/09 03:00:28;;;;;;;21.07;12.80;;;;;;;-142.25;100.00;58004.16;5040431;28;20598;-61
2022/12/09 03:02:58;;;;;;;20.33;14.27;;;;;;;-142.25;100.00;58004.16;5034308;28;20065;-61
2022/12/09 03:05:39;;;;;;;18.87;12.90;;;;;;;-142.25;100.00;58004.16;5029081;28;20500;-60
2022/12/09 03:08:17;;;;;;;19.77;12.33;;;;;;;-142.25;100.00;58004.16;5029430;28;20037;-60
2022/12/09 03:11:05;;;;;;;18.00;13.23;;;;;;;-142.25;100.00;58004.16;5032247;28;20072;-61
2022/12/09 03:14:05;;;;;;;21.43;13.00;;;;;;;-142.25;100.00;58004.16;5033427;28;20045;-61
2022/12/09 03:16:43;;;;;;;25.23;13.53;;;;;;;-142.25;100.00;58004.16;5032073;28;20120;-61
2022/12/09 03:19:12;;;;;;;22.47;13.93;;;;;;;-142.25;100.00;58004.16;5032109;28;20115;-60
2022/12/09 03:21:43;;;;;;;20.93;13.60;;;;;;;-142.25;100.00;58004.16;5032181;28;20053;-60
2022/12/09 03:24:11;;;;;;;22.63;14.67;;;;;;;-142.25;100.00;58004.16;5034817;28;20174;-59
2022/12/09 03:26:38;;;;;;;19.30;13.03;;;;;;;-142.25;100.00;58004.16;5031104;28;20037;-60
2022/12/09 03:29:09;;;;;;;21.03;14.07;;;;;;;-142.25;100.00;58004.16;5033088;28;20053;-60
2022/12/09 03:31:37;;;;;;;37.23;22.30;;;;;;;-142.25;100.00;58004.16;5032631;28;20163;-60
2022/12/09 03:34:06;;;;;;;38.33;21.73;;;;;;;-142.25;100.00;58004.16;5032440;28;20069;-61
2022/12/09 03:36:40;;;;;;;37.40;21.80;;;;;;;-142.25;100.00;58004.16;5032374;28;20083;-60
2022/12/09 03:39:11;;;;;;;24.03;14.47;;;;;;;-142.25;100.00;58004.16;5032428;28;20041;-61
2022/12/09 03:42:03;;;;;;;22.07;15.33;;;;;;;-142.25;100.00;58004.16;5033183;28;20041;-61
2022/12/09 03:44:49;;;;;;;20.37;13.33;;;;;;;-142.25;100.00;58004.16;5032131;28;20057;-61
2022/12/09 03:47:15;;;;;;;28.53;17.40;;;;;;;-142.25;100.00;58004.16;5031759;28;20053;-62
2022/12/09 03:49:41;;;;;;;32.10;18.23;;;;;;;-142.25;100.00;58004.16;5035900;28;20377;-60
2022/12/09 03:52:15;;;;;;;28.97;16.50;;;;;;;-142.25;100.00;58004.16;5035207;28;20496;-61
2022/12/09 03:54:44;;;;;;;27.70;16.48;;;;;;;-142.25;100.00;58004.16;5036343;28;20045;-61
2022/12/09 03:57:12;;;;;;;26.80;15.03;;;;;;;-142.25;100.00;58004.16;5031325;28;20927;-61
2022/12/09 03:59:39;;;;;;;22.17;15.33;;;;;;;-142.25;100.00;58004.16;5031562;28;20044;-59
2022/12/09 04:02:05;;;;;;;22.83;14.07;;;;;;;-142.25;100.00;58004.16;5032884;28;20037;-59
2022/12/09 04:04:33;;;;;;;23.60;14.00;;;;;;;-142.25;100.00;58004.16;5031665;28;20041;-61
2022/12/09 04:06:59;;;;;;;26.27;14.90;;;;;;;-142.25;100.00;58004.16;5031608;28;20049;-60
2022/12/09 04:09:25;;;;;;;21.60;14.60;;;;;;;-142.25;100.00;58004.16;5032516;28;20052;-60
2022/12/09 04:11:51;;;;;;;24.23;16.73;;;;;;;-142.25;100.00;58004.16;5033432;28;20045;-61
2022/12/09 04:14:16;;;;;;;24.03;15.53;;;;;;;-142.25;100.00;58004.16;5033451;28;20053;-60
2022/12/09 04:16:43;;;;;;;19.93;13.93;;;;;;;-142.25;100.00;58004.16;5032684;28;20484;-61
2022/12/09 04:19:08;;;;;;;23.30;14.37;;;;;;;-142.25;100.00;58004.16;5032827;28;20071;-61
2022/12/09 04:21:34;;;;;;;22.10;14.90;;;;;;;-142.25;100.00;58004.16;5031124;28;20066;-60
2022/12/09 04:24:00;;;;;;;17.60;12.97;;;;;;;-142.25;100.00;58004.16;5033751;28;20203;-60
2022/12/09 04:26:25;;;;;;;21.63;14.10;;;;;;;-142.25;100.00;58004.16;5033972;28;20045;-61
2022/12/09 04:28:51;;;;;;;18.43;12.00;;;;;;;-142.25;100.00;58004.16;5032317;28;20424;-60
2022/12/09 04:31:18;;;;;;;20.50;12.60;;;;;;;-142.25;100.00;58004.16;5033578;28;20034;-60
2022/12/09 04:33:44;;;;;;;19.47;13.10;;;;;;;-142.25;100.00;58004.16;5028914;28;20044;-60
2022/12/09 04:36:16;;;;;;;18.90;13.00;;;;;;;-142.25;100.00;58004.16;5030071;28;20050;-60
2022/12/09 04:38:42;;;;;;;17.17;11.57;;;;;;;-142.25;100.00;58004.16;5035172;28;20049;-60
2022/12/09 04:41:08;;;;;;;18.73;12.00;;;;;;;-142.25;100.00;58004.16;5033559;28;20092;-60
2022/12/09 04:43:34;;;;;;;18.30;12.00;;;;;;;-142.25;100.00;58004.16;5033889;28;20526;-60
2022/12/09 04:46:01;;;;;;;17.30;11.43;;;;;;;-142.25;100.00;58004.16;5030782;28;20239;-61
2022/12/09 04:48:27;;;;;;;20.20;12.87;;;;;;;-142.25;100.00;58004.16;5032613;28;20046;-60
2022/12/09 04:50:53;;;;;;;17.50;11.43;;;;;;;-142.25;100.00;58004.16;5032555;28;20041;-60
2022/12/09 04:53:18;;;;;;;18.77;11.13;;;;;;;-142.25;100.00;58004.16;5030676;28;20041;-60
2022/12/09 04:55:44;;;;;;;14.13;11.23;;;;;;;-142.25;100.00;58004.16;5028194;28;20043;-59
2022/12/09 04:58:09;;;;;;;20.07;12.43;;;;;;;-142.25;100.00;58004.16;5029374;28;20041;-61
2022/12/09 05:00:35;;;;;;;16.87;11.60;;;;;;;-142.25;100.00;58004.16;5031399;28;20502;-60
2022/12/09 05:03:01;;;;;;;17.30;11.13;;;;;;;-142.25;100.00;58004.16;5032954;28;20048;-61
2022/12/09 05:05:27;;;;;;;18.93;12.17;;;;;;;-142.25;100.00;58004.16;5028579;28;20041;-59
2022/12/09 05:07:52;;;;;;;18.87;12.27;;;;;;;-142.25;100.00;58004.16;5031204;28;20052;-60
2022/12/09 05:10:18;;;;;;;17.40;11.23;;;;;;;-142.25;100.00;58004.16;5035434;28;20147;-59
2022/12/09 05:12:44;;;;;;;17.77;11.80;;;;;;;-142.25;100.00;58004.16;5031836;28;20053;-59
2022/12/09 05:15:10;;;;;;;16.77;11.73;;;;;;;-142.25;100.00;58004.16;5047870;28;20053;-60
2022/12/09 05:17:35;;;;;;;16.07;11.77;;;;;;;-142.25;100.00;58004.16;5026826;28;20060;-60
2022/12/09 05:20:02;;;;;;;16.73;11.63;;;;;;;-142.25;100.00;58004.16;5025965;28;20559;-60
2022/12/09 05:22:27;;;;;;;15.40;11.73;;;;;;;-142.25;100.00;58004.16;5034335;28;20041;-60
2022/12/09 05:24:53;;;;;;;19.43;12.33;;;;;;;-142.25;100.00;58004.16;5030307;28;20447;-61
2022/12/09 05:27:18;;;;;;;17.27;12.30;;;;;;;-142.25;100.00;58004.16;5030449;28;20042;-60
2022/12/09 05:29:45;;;;;;;18.83;13.23;;;;;;;-142.25;100.00;58004.16;5031404;28;20045;-59
2022/12/09 05:32:10;;;;;;;16.83;11.77;;;;;;;-142.25;100.00;58004.16;5033731;28;20045;-60
2022/12/09 05:34:37;;;;;;;17.87;12.17;;;;;;;-142.25;100.00;58004.16;5033457;28;20160;-59
2022/12/09 05:37:02;;;;;;;22.07;11.90;;;;;;;-142.25;100.00;58004.16;5033525;28;20103;-61
2022/12/09 05:39:28;;;;;;;18.13;12.47;;;;;;;-142.25;100.00;58004.16;5036384;28;20041;-59
2022/12/09 05:41:55;;;;;;;18.37;11.47;;;;;;;-142.25;100.00;58004.16;5037516;28;20077;-60
2022/12/09 05:44:21;;;;;;;18.27;11.13;;;;;;;-142.25;100.00;58004.16;5034061;28;20294;-61
2022/12/09 05:46:46;;;;;;;18.03;12.20;;;;;;;-142.25;100.00;58004.16;5033888;28;20089;-59
2022/12/09 05:49:12;;;;;;;19.50;11.87;;;;;;;-142.25;100.00;58004.16;5033106;28;20045;-61
2022/12/09 05:51:38;;;;;;;17.97;10.73;;;;;;;-142.25;100.00;58004.16;5034751;28;20072;-59
2022/12/09 05:54:04;;;;;;;18.03;10.80;;;;;;;-142.25;100.00;58004.16;5038127;28;20053;-60
2022/12/09 05:56:31;;;;;;;17.37;11.43;;;;;;;-142.25;100.00;58004.16;5034938;28;20042;-60
2022/12/09 05:58:57;;;;;;;16.67;10.43;;;;;;;-142.25;100.00;58004.16;5034434;28;20122;-60
2022/12/09 06:01:24;;;;;;;15.97;11.60;;;;;;;-142.25;100.00;58004.16;5035453;28;20083;-60
2022/12/09 06:03:52;;;;;;;16.27;10.50;;;;;;;-142.25;100.00;58004.16;5035378;28;20042;-59
2022/12/09 06:06:19;;;;;;;16.13;10.50;;;;;;;-142.25;100.00;58004.16;5029664;28;20103;-61
2022/12/09 06:08:46;;;;;;;15.53;10.17;;;;;;;-142.25;100.00;58004.16;5030329;28;20041;-60
2022/12/09 06:11:19;;;;;;;14.13;11.00;;;;;;;-142.25;100.00;58004.16;5034629;28;20049;-59
2022/12/09 06:13:46;;;;;;;16.87;11.43;;;;;;;-142.25;100.00;58004.16;5034499;28;20120;-58
2022/12/09 06:16:13;;;;;;;19.47;12.63;;;;;;;-142.25;100.00;58004.16;5030374;28;20029;-59
2022/12/09 06:18:39;;;;;;;24.33;14.00;;;;;;;-142.25;100.00;58004.16;5028044;28;20033;-60
2022/12/09 06:21:10;;;;;;;27.67;17.53;;;;;;;-142.25;100.00;58004.16;5027930;28;20052;-60
2022/12/09 06:23:37;;;;;;;25.53;15.23;;;;;;;-142.25;100.00;58004.16;5028248;28;20034;-60
2022/12/09 06:26:04;;;;;;;24.77;14.20;;;;;;;-142.25;100.00;58004.16;5029298;28;20048;-63
2022/12/09 06:28:31;;;;;;;24.47;15.03;;;;;;;-142.25;100.00;58004.16;5032388;28;20365;-59
2022/12/09 06:30:57;;;;;;;25.87;14.73;;;;;;;-142.25;100.00;58004.16;5031770;28;20053;-60
2022/12/09 06:33:23;;;;;;;19.33;12.97;;;;;;;-142.25;100.00;58004.16;5034163;28;20040;-60
2022/12/09 06:35:49;;;;;;;21.80;13.23;;;;;;;-142.25;100.00;58004.16;5037478;28;20033;-60
2022/12/09 06:38:15;;;;;;;23.63;13.80;;;;;;;-142.25;100.00;58004.16;5035920;28;20081;-61
2022/12/09 06:40:42;;;;;;;21.83;12.83;;;;;;;-142.25;100.00;58004.16;5034656;28;20094;-60
2022/12/09 06:43:08;;;;;;;26.57;14.10;;;;;;;-142.25;100.00;58004.16;5031989;28;20045;-59
2022/12/09 06:45:37;;;;;;;19.90;13.23;;;;;;;-142.25;100.00;58004.16;5030751;28;20059;-60
2022/12/09 06:48:03;;;;;;;22.67;14.33;;;;;;;-142.25;100.00;58004.16;5033972;28;20071;-62
2022/12/09 06:50:29;;;;;;;23.13;14.10;;;;;;;-142.25;100.00;58004.16;5031037;28;20075;-60
2022/12/09 06:52:55;;;;;;;21.27;14.03;;;;;;;-142.25;100.00;58004.16;5027937;28;20597;-60
2022/12/09 06:55:20;;;;;;;25.57;15.30;;;;;;;-142.25;100.00;58004.16;5029569;28;20080;-60
2022/12/09 06:57:46;;;;;;;29.10;17.80;;;;;;;-142.25;100.00;58004.16;5035528;28;20044;-60
2022/12/09 07:00:13;;;;;;;23.03;14.37;;;;;;;-142.25;100.00;58004.16;5032953;28;20250;-60
2022/12/09 07:02:38;;;;;;;24.77;14.07;;;;;;;-142.25;100.00;58004.16;5032001;28;20049;-60
2022/12/09 07:05:04;;;;;;;25.27;15.30;;;;;;;-142.25;100.00;58004.16;5033272;28;20037;-60
2022/12/09 07:07:32;;;;;;;24.80;16.43;;;;;;;-142.25;100.00;58004.16;5041029;28;20052;-61
2022/12/09 07:10:02;;;;;;;27.60;16.67;;;;;;;-142.25;100.00;58004.16;5032070;28;20045;-61
2022/12/09 07:12:27;;;;;;;25.40;16.50;;;;;;;-142.25;100.00;58004.16;5030465;28;20390;-61
2022/12/09 07:14:53;;;;;;;25.30;15.67;;;;;;;-142.25;100.00;58004.16;5031356;28;20638;-61
2022/12/09 07:17:19;;;;;;;25.67;16.27;;;;;;;-142.25;100.00;58004.16;5033333;28;20040;-60
2022/12/09 07:19:45;;;;;;;26.53;16.33;;;;;;;-142.25;100.00;58004.16;5033766;28;20053;-60
2022/12/09 07:22:12;;;;;;;28.37;16.40;;;;;;;-142.25;100.00;58004.16;5042648;28;20048;-59
2022/12/09 07:24:39;;;;;;;23.77;16.23;;;;;;;-142.25;100.00;58004.16;5031732;28;20695;-59
2022/12/09 07:27:06;;;;;;;25.93;15.13;;;;;;;-142.25;100.00;58004.16;5027205;28;20050;-59
2022/12/09 07:29:33;;;;;;;23.73;14.53;;;;;;;-142.25;100.00;58004.16;5025745;28;20576;-60
2022/12/09 07:31:59;;;;;;;27.70;15.07;;;;;;;-142.25;100.00;58004.16;5033290;28;20492;-60
2022/12/09 07:34:24;;;;;;;26.20;15.87;;;;;;;-142.25;100.00;58004.16;5028356;28;20128;-62
2022/12/09 07:36:50;;;;;;;27.97;17.27;;;;;;;-142.25;100.00;58004.16;5028131;28;20049;-60
2022/12/09 07:39:17;;;;;;;25.47;16.57;;;;;;;-142.25;100.00;58004.16;5035665;28;20049;-61
2022/12/09 07:41:43;;;;;;;28.67;16.03;;;;;;;-142.25;100.00;58004.16;5032875;28;20180;-58
2022/12/09 07:44:10;;;;;;;27.93;15.67;;;;;;;-142.25;100.00;58004.16;5031868;28;20487;-59
2022/12/09 07:46:37;;;;;;;24.43;15.43;;;;;;;-142.25;100.00;58004.16;5025505;28;20069;-60
2022/12/09 07:49:04;;;;;;;24.00;15.63;;;;;;;-142.25;100.00;58004.16;5026442;28;20092;-60
2022/12/09 07:51:31;;;;;;;26.17;15.80;;;;;;;-142.25;100.00;58004.16;5025528;28;20080;-60
2022/12/09 07:53:57;;;;;;;27.93;17.23;;;;;;;-142.25;100.00;58004.16;5028629;28;20068;-60
2022/12/09 07:56:23;;;;;;;27.43;17.33;;;;;;;-142.25;100.00;58004.16;5032768;28;20483;-59
2022/12/09 07:58:53;;;;;;;28.90;17.13;;;;;;;-142.25;100.00;58004.16;5032763;28;20492;-60
2022/12/09 08:01:22;;;;;;;27.27;16.73;;;;;;;-142.25;100.00;58004.16;5032826;28;20041;-60
2022/12/09 08:03:49;;;;;;;27.87;17.33;;;;;;;-142.25;100.00;58004.16;5033097;28;20522;-60
2022/12/09 08:06:17;;;;;;;29.20;17.33;;;;;;;-142.25;100.00;58004.16;5035699;28;20052;-61
2022/12/09 08:08:44;;;;;;;29.90;15.07;;;;;;;-142.25;100.00;58004.16;5033695;28;20037;-60
2022/12/09 08:11:15;;;;;;;23.23;14.83;;;;;;;-142.25;100.00;58004.16;5034561;28;20049;-60
2022/12/09 08:13:42;;;;;;;24.97;15.37;;;;;;;-142.25;100.00;58004.16;5039411;28;20615;-60
2022/12/09 08:16:10;;;;;;;25.03;14.83;;;;;;;-142.25;100.00;58004.16;5038757;28;20124;-62
2022/12/09 08:18:39;;;;;;;24.30;15.47;;;;;;;-142.25;100.00;58004.16;5030784;28;20044;-61
2022/12/09 08:21:08;;;;;;;24.27;16.00;;;;;;;-142.25;100.00;58004.16;5030310;28;20053;-60
2022/12/09 08:23:34;;;;;;;28.10;16.70;;;;;;;-142.25;100.00;58004.16;5031173;28;20112;-60
2022/12/09 08:26:00;;;;;;;29.43;17.90;;;;;;;-142.25;100.00;58004.16;5031755;28;20441;-61
2022/12/09 08:28:27;;;;;;;27.23;16.23;;;;;;;-142.25;100.00;58004.16;5032453;28;20077;-61
2022/12/09 08:30:53;;;;;;;25.73;14.90;;;;;;;-142.25;100.00;58004.16;5033388;28;20046;-60
2022/12/09 08:33:19;;;;;;;27.70;14.70;;;;;;;-142.25;100.00;58004.16;5032831;28;20461;-60
2022/12/09 08:35:44;;;;;;;26.90;15.80;;;;;;;-142.25;100.00;58004.16;5031858;28;20076;-61
2022/12/09 08:38:10;;;;;;;26.67;15.57;;;;;;;-142.25;100.00;58004.16;5030977;28;20459;-61
2022/12/09 08:40:37;;;;;;;25.53;14.63;;;;;;;-142.25;100.00;58004.16;5030479;28;20460;-60
2022/12/09 08:43:07;;;;;;;29.03;16.17;;;;;;;-142.25;100.00;58004.16;5032606;28;20080;-59
2022/12/09 08:45:38;;;;;;;24.73;16.20;;;;;;;-142.25;100.00;58004.16;5032323;28;20080;-60
2022/12/09 08:48:05;;;;;;;28.67;16.40;;;;;;;-142.25;100.00;58004.16;5033169;28;20444;-60
2022/12/09 08:50:31;;;;;;;30.13;17.40;;;;;;;-142.25;100.00;58004.16;5031974;28;20045;-60
2022/12/09 08:52:56;;;;;;;32.40;19.47;;;;;;;-142.25;100.00;58004.16;5030248;28;20029;-61
2022/12/09 08:55:22;;;;;;;40.07;21.07;;;;;;;-142.25;100.00;58004.16;5031361;28;20045;-60
2022/12/09 08:57:48;;;;;;;30.60;17.87;;;;;;;-142.25;100.00;58004.16;5031722;28;20067;-62
2022/12/09 09:00:14;;;;;;;28.10;16.77;;;;;;;-142.25;100.00;58004.16;5032091;28;20052;-62
2022/12/09 09:02:40;;;;;;;24.40;15.47;;;;;;;-142.25;100.00;58004.16;5047810;28;20048;-65
2022/12/09 09:05:05;;;;;;;28.50;16.20;;;;;;;-142.25;100.00;58004.16;5032969;28;20124;-63
2022/12/09 09:07:31;;;;;;;42.30;21.97;;;;;;;-142.25;100.00;58004.16;5032242;28;20048;-63
2022/12/09 09:09:59;;;;;;;31.13;18.33;;;;;;;-142.25;100.00;58004.16;5033998;28;20045;-64
2022/12/09 09:12:26;;;;;;;31.77;18.10;;;;;;;-142.25;100.00;58004.16;5034431;28;20041;-64
2022/12/09 09:14:53;;;;;;;31.50;17.77;;;;;;;-142.25;100.00;58004.16;5035234;28;20061;-61
2022/12/09 09:17:22;;;;;;;30.33;17.20;;;;;;;-142.25;100.00;58004.16;5034832;28;20630;-64
2022/12/09 09:19:48;;;;;;;31.60;19.17;;;;;;;-142.25;100.00;58004.16;5034675;28;20543;-63
2022/12/09 09:22:14;;;;;;;34.23;19.00;;;;;;;-142.25;100.00;58004.16;5031736;28;20561;-61
2022/12/09 09:24:40;;;;;;;38.03;21.97;;;;;;;-142.25;100.00;58004.16;5033268;28;20071;-61
2022/12/09 09:27:05;;;;;;;37.33;20.23;;;;;;;-142.25;100.00;58004.16;5035745;28;20052;-61
2022/12/09 09:29:31;;;;;;;27.83;17.13;;;;;;;-142.25;100.00;58004.16;5040542;28;20513;-62
2022/12/09 09:31:57;;;;;;;31.80;18.50;;;;;;;-142.25;100.00;58004.16;5035544;28;20061;-60
2022/12/09 09:34:24;;;;;;;30.97;18.73;;;;;;;-142.25;100.00;58004.16;5026861;28;20046;-62
2022/12/09 09:36:50;;;;;;;30.77;17.97;;;;;;;-142.25;100.00;58004.16;5027605;28;20040;-62
2022/12/09 09:39:17;;;;;;;33.97;19.80;;;;;;;-142.25;100.00;58004.16;5028880;28;20045;-61
2022/12/09 09:41:42;;;;;;;27.60;15.73;;;;;;;-142.25;100.00;58004.16;5029178;28;20045;-63
2022/12/09 09:44:18;;;;;;;38.03;19.73;;;;;;;-142.25;100.00;58004.16;5035304;28;20052;-64
2022/12/09 09:46:47;;;;;;;39.97;21.57;;;;;;;-142.25;100.00;58004.16;5028299;28;20048;-62
2022/12/09 09:49:22;;;;;;;37.10;18.87;;;;;;;-142.25;100.00;58004.16;5028191;28;20465;-62
2022/12/09 09:51:48;;;;;;;50.95;25.63;;;;;;;-142.25;100.00;58004.16;5034095;28;20466;-62
2022/12/09 09:54:14;;;;;;;36.50;19.93;;;;;;;-142.25;100.00;58004.16;5036200;28;20587;-62
2022/12/09 09:56:59;;;;;;;35.47;17.80;;;;;;;-142.25;100.00;58004.16;5037113;28;20375;-61
2022/12/09 09:59:30;;;;;;;34.92;17.40;;;;;;;-142.25;100.00;58004.16;5034137;28;20041;-62
2022/12/09 10:02:17;;;;;;;33.70;17.10;;;;;;;-142.25;100.00;58004.16;5049973;28;20045;-61
2022/12/09 10:05:13;;;;;;;35.07;18.33;;;;;;;-142.25;100.00;58004.16;5032842;28;20060;-61
2022/12/09 10:07:45;;;;;;;29.83;16.20;;;;;;;-142.25;100.00;58004.16;5032742;28;20468;-61
2022/12/09 10:10:20;;;;;;;28.73;15.87;;;;;;;-142.25;100.00;58004.16;5033511;28;20276;-61
2022/12/09 10:13:30;;;;;;;24.70;15.18;;;;;;;-142.25;100.00;58004.16;5034322;28;20515;-62
2022/12/09 10:16:20;;;;;;;29.77;15.53;;;;;;;-142.25;100.00;58004.16;5031057;28;20058;-62
2022/12/09 10:18:58;;;;;;;31.80;16.93;;;;;;;-142.25;100.00;58004.16;5027283;28;20139;-62
2022/12/09 10:21:28;;;;;;;28.00;16.00;;;;;;;-142.25;100.00;58004.16;5035260;28;20140;-62
2022/12/09 10:23:56;;;;;;;27.90;16.73;;;;;;;-142.25;100.00;58004.16;5034395;28;20038;-62
2022/12/09 10:26:25;;;;;;;30.00;17.33;;;;;;;-142.25;100.00;58004.16;5032692;28;20040;-67
2022/12/09 10:29:35;;;;;;;33.10;19.23;;;;;;;-142.25;100.00;58004.16;5033230;28;20065;-62
2022/12/09 10:32:00;;;;;;;35.50;19.80;;;;;;;-142.25;100.00;58004.16;5018852;28;20492;-61
2022/12/09 10:34:26;;;;;;;27.90;17.43;;;;;;;-142.25;100.00;58004.16;5029758;28;20049;-62
2022/12/09 10:36:53;;;;;;;32.43;16.83;;;;;;;-142.25;100.00;58004.16;5029634;28;20048;-62
2022/12/09 10:39:20;;;;;;;27.67;15.60;;;;;;;-142.25;100.00;58004.16;5034883;28;20025;-61
2022/12/09 10:44:39;;;;;;;31.17;17.50;;;;;;;-142.25;100.00;58004.16;5035472;28;20049;-66
2022/12/09 10:47:27;;;;;;;33.13;18.90;;;;;;;-142.25;100.00;58004.16;5030794;28;20061;-62
2022/12/09 10:49:56;;;;;;;30.97;18.07;;;;;;;-142.25;100.00;58004.16;5025652;28;20115;-62
2022/12/09 10:52:29;;;;;;;38.17;20.53;;;;;;;-142.25;100.00;58004.16;5032256;28;20119;-61
2022/12/09 10:54:56;;;;;;;36.73;17.70;;;;;;;-142.25;100.00;58004.16;5026729;28;20465;-61
2022/12/09 10:57:26;;;;;;;33.83;16.40;;;;;;;-142.25;100.00;58004.16;5030223;28;20056;-61
2022/12/09 11:00:06;;;;;;;29.70;15.47;;;;;;;-142.25;100.00;58004.16;5028910;28;20045;-61
2022/12/09 11:02:33;;;;;;;29.50;15.93;;;;;;;-142.25;100.00;58004.16;5029411;28;20041;-62
2022/12/09 11:05:37;;;;;;;30.13;17.20;;;;;;;-142.25;100.00;58004.16;5032026;28;20123;-62
2022/12/09 11:08:03;;;;;;;35.73;19.73;;;;;;;-142.25;100.00;58004.16;5002012;28;20096;-62